Time;durP1;ratioP1;P1;durP2;ratioP2;P2;SDS_P1;SDS_P2;PMS_P1;PMS_P2;Temp;Humidity;BMP_temperature;BMP_pressure;BME280_temperature;BME280_humidity;BME280_pressure;Samples;Min_cycle;Max_cycle;Signal;HPM_P1;HPM_P2
2023/06/04 00:01:02;;;;;;;3.72;1.85;;;;;;;;;;5038415;28;20236;-73
2023/06/04 00:03:27;;;;;;;5.57;2.90;;;;;;;;;;5038115;28;20635;-72
2023/06/04 00:05:53;;;;;;;5.80;2.55;;;;;;;;;;5027708;28;20585;-72
2023/06/04 00:08:18;;;;;;;7.68;4.30;;;;;;;;;;5022452;28;20181;-72
2023/06/04 00:10:44;;;;;;;8.93;3.92;;;;;;;;;;5022189;28;20206;-72
2023/06/04 00:13:10;;;;;;;8.00;3.72;;;;;;;;;;5013313;28;20187;-72
2023/06/04 00:15:35;;;;;;;7.13;2.83;;;;;;;;;;5025993;28;20190;-73
2023/06/04 00:18:00;;;;;;;4.60;2.08;;;;;;;;;;5033430;28;20212;-72
2023/06/04 00:20:26;;;;;;;4.88;1.90;;;;;;;;;;5021209;28;20241;-72
2023/06/04 00:22:51;;;;;;;5.10;2.50;;;;;;;;;;5034121;28;20269;-72
2023/06/04 00:25:17;;;;;;;2.80;1.48;;;;;;;;;;5024682;28;20196;-71
2023/06/04 00:27:42;;;;;;;5.53;2.10;;;;;;;;;;5030718;28;20651;-72
2023/06/04 00:30:08;;;;;;;4.82;1.27;;;;;;;;;;5028865;28;20247;-72
2023/06/04 00:32:34;;;;;;;5.75;2.50;;;;;;;;;;5031308;28;20262;-72
2023/06/04 00:35:00;;;;;;;4.95;2.10;;;;;;;;;;5031529;28;20221;-73
2023/06/04 00:37:25;;;;;;;6.47;2.65;;;;;;;;;;5037686;28;20216;-72
2023/06/04 00:39:51;;;;;;;3.90;1.08;;;;;;;;;;5024157;28;20719;-72
2023/06/04 00:42:17;;;;;;;4.35;1.10;;;;;;;;;;5034315;28;20196;-72
2023/06/04 00:44:44;;;;;;;6.97;1.70;;;;;;;;;;5026926;28;20198;-72
2023/06/04 00:47:14;;;;;;;4.75;1.90;;;;;;;;;;5029439;28;20565;-73
2023/06/04 00:49:41;;;;;;;4.65;2.20;;;;;;;;;;5025318;28;20174;-72
2023/06/04 00:52:10;;;;;;;5.50;2.22;;;;;;;;;;5023584;28;20182;-73
2023/06/04 00:54:36;;;;;;;5.13;2.95;;;;;;;;;;5020566;28;20214;-72
2023/06/04 00:57:01;;;;;;;4.38;2.10;;;;;;;;;;5013809;28;20195;-72
2023/06/04 00:59:32;;;;;;;7.78;3.40;;;;;;;;;;5035929;28;20186;-72
2023/06/04 01:02:06;;;;;;;3.75;1.80;;;;;;;;;;5027901;28;20209;-72
2023/06/04 01:04:40;;;;;;;3.30;2.00;;;;;;;;;;5030814;28;20186;-73
2023/06/04 01:07:08;;;;;;;3.25;1.70;;;;;;;;;;5042217;28;20193;-73
2023/06/04 01:09:35;;;;;;;4.75;1.98;;;;;;;;;;5027767;28;20194;-73
2023/06/04 01:12:04;;;;;;;3.05;1.83;;;;;;;;;;5029717;28;20747;-73
2023/06/04 01:14:30;;;;;;;2.33;1.20;;;;;;;;;;5031661;28;20186;-73
2023/06/04 01:17:02;;;;;;;4.05;1.27;;;;;;;;;;5027518;28;20205;-72
2023/06/04 01:19:51;;;;;;;3.15;1.30;;;;;;;;;;5032262;28;20193;-72
2023/06/04 01:22:38;;;;;;;3.53;1.58;;;;;;;;;;5029835;28;20190;-73
2023/06/04 01:25:06;;;;;;;8.80;3.28;;;;;;;;;;5010875;28;20186;-73
2023/06/04 01:27:35;;;;;;;5.70;2.30;;;;;;;;;;5034219;28;20216;-73
2023/06/04 01:30:00;;;;;;;6.05;2.38;;;;;;;;;;5026647;28;20194;-73
2023/06/04 01:32:26;;;;;;;5.40;2.25;;;;;;;;;;5038489;28;20186;-73
2023/06/04 01:34:52;;;;;;;6.35;2.30;;;;;;;;;;5030806;28;20197;-73
2023/06/04 01:37:18;;;;;;;15.63;5.70;;;;;;;;;;5047834;28;20186;-73
2023/06/04 01:39:43;;;;;;;8.15;4.05;;;;;;;;;;5029770;28;20230;-73
2023/06/04 01:42:09;;;;;;;10.73;5.30;;;;;;;;;;5030637;28;20194;-73
2023/06/04 01:44:35;;;;;;;6.75;2.55;;;;;;;;;;5033497;28;20208;-73
2023/06/04 01:47:00;;;;;;;16.95;5.75;;;;;;;;;;5040253;28;20194;-73
2023/06/04 01:49:26;;;;;;;16.95;7.32;;;;;;;;;;5022595;28;20727;-73
2023/06/04 01:51:51;;;;;;;4.18;2.42;;;;;;;;;;5027531;28;20194;-73
2023/06/04 01:54:17;;;;;;;10.75;4.80;;;;;;;;;;5040670;28;20189;-73
2023/06/04 01:56:43;;;;;;;6.78;3.05;;;;;;;;;;5033909;28;20557;-73
2023/06/04 01:59:11;;;;;;;10.52;4.88;;;;;;;;;;5027068;28;20253;-73
2023/06/04 02:01:37;;;;;;;5.40;2.05;;;;;;;;;;5025665;28;20206;-73
2023/06/04 02:04:03;;;;;;;5.57;3.42;;;;;;;;;;5019215;28;20186;-73
2023/06/04 02:06:29;;;;;;;12.40;6.47;;;;;;;;;;5023236;28;20276;-73
2023/06/04 02:08:55;;;;;;;6.38;3.22;;;;;;;;;;5030278;28;20209;-73
2023/06/04 02:11:20;;;;;;;9.00;3.90;;;;;;;;;;5026460;28;20190;-73
2023/06/04 02:13:46;;;;;;;4.30;2.60;;;;;;;;;;5028801;28;20530;-73
2023/06/04 02:16:11;;;;;;;6.65;2.05;;;;;;;;;;5015402;28;20226;-73
2023/06/04 02:18:36;;;;;;;3.22;2.10;;;;;;;;;;5024557;28;20218;-73
2023/06/04 02:21:02;;;;;;;4.40;2.20;;;;;;;;;;5026703;28;20190;-73
2023/06/04 02:23:27;;;;;;;6.45;2.67;;;;;;;;;;5032807;28;20597;-73
2023/06/04 02:25:53;;;;;;;5.28;2.03;;;;;;;;;;5033381;28;20194;-73
2023/06/04 02:28:18;;;;;;;6.97;2.35;;;;;;;;;;5028382;28;20186;-73
2023/06/04 02:30:45;;;;;;;3.80;2.17;;;;;;;;;;5025247;28;20233;-72
2023/06/04 02:33:11;;;;;;;3.92;2.28;;;;;;;;;;5032568;28;20229;-73
2023/06/04 02:35:37;;;;;;;4.65;2.10;;;;;;;;;;5027256;28;20274;-73
2023/06/04 02:38:02;;;;;;;6.47;2.22;;;;;;;;;;5047122;28;20217;-73
2023/06/04 02:40:28;;;;;;;3.08;2.00;;;;;;;;;;5038960;28;20230;-73
2023/06/04 02:42:55;;;;;;;4.93;2.20;;;;;;;;;;5015484;28;20195;-73
2023/06/04 02:45:21;;;;;;;3.65;2.28;;;;;;;;;;5028455;28;20186;-73
2023/06/04 02:47:47;;;;;;;4.53;2.00;;;;;;;;;;5025091;28;20183;-73
2023/06/04 02:50:13;;;;;;;5.40;2.65;;;;;;;;;;5039242;28;20240;-73
2023/06/04 02:52:39;;;;;;;3.67;1.98;;;;;;;;;;5016467;28;20263;-73
2023/06/04 02:55:11;;;;;;;4.60;2.00;;;;;;;;;;5028488;28;20194;-73
2023/06/04 02:57:38;;;;;;;5.22;2.63;;;;;;;;;;5017457;28;20297;-73
2023/06/04 03:00:11;;;;;;;7.53;2.47;;;;;;;;;;5027722;28;20194;-73
2023/06/04 03:02:37;;;;;;;8.25;2.80;;;;;;;;;;5029112;28;20193;-72
2023/06/04 03:05:02;;;;;;;6.50;2.60;;;;;;;;;;5020437;28;20187;-73
2023/06/04 03:07:27;;;;;;;7.18;3.08;;;;;;;;;;5029022;28;20654;-72
2023/06/04 03:09:53;;;;;;;8.38;3.63;;;;;;;;;;5015385;28;20209;-73
2023/06/04 03:12:18;;;;;;;10.27;4.00;;;;;;;;;;5017559;28;20268;-72
2023/06/04 03:14:43;;;;;;;6.30;2.83;;;;;;;;;;5031272;28;20201;-72
2023/06/04 03:17:10;;;;;;;8.40;3.85;;;;;;;;;;5047735;28;20185;-72
2023/06/04 03:19:41;;;;;;;6.00;2.92;;;;;;;;;;5036885;28;20216;-73
2023/06/04 03:22:09;;;;;;;8.57;4.85;;;;;;;;;;5026399;28;20324;-73
2023/06/04 03:24:40;;;;;;;5.88;2.95;;;;;;;;;;5040341;28;20220;-73
2023/06/04 03:27:07;;;;;;;7.63;3.00;;;;;;;;;;5009995;28;20211;-73
2023/06/04 03:29:33;;;;;;;5.47;2.97;;;;;;;;;;5028914;28;20552;-73
2023/06/04 03:32:00;;;;;;;8.68;3.65;;;;;;;;;;5027134;28;20185;-73
2023/06/04 03:34:25;;;;;;;8.55;3.50;;;;;;;;;;5025049;28;20187;-73
2023/06/04 03:36:52;;;;;;;4.10;2.70;;;;;;;;;;5032951;28;20198;-73
2023/06/04 03:39:17;;;;;;;7.82;3.88;;;;;;;;;;5026966;28;20252;-73
2023/06/04 03:41:43;;;;;;;5.13;3.08;;;;;;;;;;5028790;28;20209;-73
2023/06/04 03:44:08;;;;;;;5.78;3.47;;;;;;;;;;5033232;28;20259;-73
2023/06/04 03:46:35;;;;;;;8.65;3.95;;;;;;;;;;5036881;28;20617;-73
2023/06/04 03:49:00;;;;;;;10.57;3.83;;;;;;;;;;5036805;28;20544;-73
2023/06/04 03:51:26;;;;;;;6.47;3.55;;;;;;;;;;5031862;28;20185;-73
2023/06/04 03:53:51;;;;;;;7.40;3.70;;;;;;;;;;5035355;28;20351;-73
2023/06/04 03:56:17;;;;;;;9.23;3.72;;;;;;;;;;5037171;28;20233;-73
2023/06/04 03:58:43;;;;;;;12.70;3.90;;;;;;;;;;5027054;28;20650;-73
2023/06/04 04:01:10;;;;;;;9.43;4.18;;;;;;;;;;5024724;28;20616;-73
2023/06/04 04:03:36;;;;;;;8.20;3.60;;;;;;;;;;5022805;28;20273;-73
2023/06/04 04:06:01;;;;;;;8.25;4.47;;;;;;;;;;5024257;28;20272;-73
2023/06/04 04:08:31;;;;;;;10.15;3.72;;;;;;;;;;5017657;28;20208;-74
2023/06/04 04:10:57;;;;;;;11.43;4.80;;;;;;;;;;5028151;28;20229;-73
2023/06/04 04:13:22;;;;;;;6.82;3.95;;;;;;;;;;5012158;28;20598;-73
2023/06/04 04:15:47;;;;;;;6.93;3.58;;;;;;;;;;5015961;28;20195;-73
2023/06/04 04:18:13;;;;;;;8.70;4.47;;;;;;;;;;5007673;28;20209;-72
2023/06/04 04:20:38;;;;;;;7.82;4.25;;;;;;;;;;5013447;28;20198;-73
2023/06/04 04:23:04;;;;;;;9.98;4.60;;;;;;;;;;5042524;28;20533;-72
2023/06/04 04:25:32;;;;;;;6.47;3.95;;;;;;;;;;5028678;28;20194;-73
2023/06/04 04:28:00;;;;;;;10.27;3.97;;;;;;;;;;5036851;28;20229;-73
2023/06/04 04:30:25;;;;;;;10.55;4.40;;;;;;;;;;5014537;28;20190;-72
2023/06/04 04:32:51;;;;;;;7.95;3.72;;;;;;;;;;5028052;28;20315;-72
2023/06/04 04:35:18;;;;;;;9.27;4.32;;;;;;;;;;5028614;28;20247;-73
2023/06/04 04:37:44;;;;;;;9.90;4.70;;;;;;;;;;5034590;28;20586;-75
2023/06/04 04:40:11;;;;;;;11.23;4.43;;;;;;;;;;5018355;28;20311;-75
2023/06/04 04:42:37;;;;;;;6.93;4.00;;;;;;;;;;5017673;28;20193;-74
2023/06/04 04:45:03;;;;;;;8.93;4.60;;;;;;;;;;5027449;28;20235;-72
2023/06/04 04:47:28;;;;;;;11.18;3.72;;;;;;;;;;5029325;28;20207;-71
2023/06/04 04:49:54;;;;;;;9.32;4.40;;;;;;;;;;5027977;28;20204;-72
2023/06/04 04:52:19;;;;;;;8.68;3.97;;;;;;;;;;5027413;28;20681;-72
2023/06/04 04:54:45;;;;;;;7.78;3.90;;;;;;;;;;5040370;28;20207;-72
2023/06/04 04:57:10;;;;;;;8.93;3.42;;;;;;;;;;5027637;28;20252;-72
2023/06/04 04:59:35;;;;;;;8.07;4.28;;;;;;;;;;5024808;28;20463;-72
2023/06/04 05:02:01;;;;;;;6.38;3.53;;;;;;;;;;5039008;28;20206;-71
2023/06/04 05:04:26;;;;;;;6.05;3.75;;;;;;;;;;5029072;28;20205;-71
2023/06/04 05:06:51;;;;;;;9.18;4.13;;;;;;;;;;5028010;28;20789;-71
2023/06/04 05:09:17;;;;;;;11.93;3.78;;;;;;;;;;5027914;28;20349;-72
2023/06/04 05:11:43;;;;;;;7.85;3.92;;;;;;;;;;5018413;28;20201;-71
2023/06/04 05:14:08;;;;;;;11.35;3.58;;;;;;;;;;5032723;28;20722;-71
2023/06/04 05:16:37;;;;;;;10.45;3.30;;;;;;;;;;5030334;28;20231;-70
2023/06/04 05:19:03;;;;;;;9.40;3.80;;;;;;;;;;5030448;28;20205;-73
2023/06/04 05:21:29;;;;;;;7.43;3.42;;;;;;;;;;5026836;28;20210;-72
2023/06/04 05:23:55;;;;;;;8.68;3.38;;;;;;;;;;5042725;28;20661;-72
2023/06/04 05:26:25;;;;;;;8.25;3.50;;;;;;;;;;5033774;28;20565;-70
2023/06/04 05:28:51;;;;;;;7.55;3.60;;;;;;;;;;5038564;28;20240;-70
2023/06/04 05:31:17;;;;;;;9.38;3.70;;;;;;;;;;5026592;28;20220;-71
2023/06/04 05:33:43;;;;;;;8.75;3.70;;;;;;;;;;5028710;28;20535;-71
2023/06/04 05:36:09;;;;;;;7.82;3.88;;;;;;;;;;5027578;28;20196;-73
2023/06/04 05:38:35;;;;;;;7.32;3.63;;;;;;;;;;5031893;28;20213;-72
2023/06/04 05:41:01;;;;;;;7.85;3.42;;;;;;;;;;5009333;28;20234;-72
2023/06/04 05:43:26;;;;;;;10.02;3.35;;;;;;;;;;5014770;28;20674;-72
2023/06/04 05:45:52;;;;;;;6.47;2.95;;;;;;;;;;5033835;28;20660;-72
2023/06/04 05:48:18;;;;;;;7.55;3.33;;;;;;;;;;5024714;28;20199;-72
2023/06/04 05:50:44;;;;;;;6.57;2.88;;;;;;;;;;5014698;28;20699;-72
2023/06/04 05:53:10;;;;;;;5.63;2.42;;;;;;;;;;5032538;28;20647;-72
2023/06/04 05:55:36;;;;;;;6.10;2.70;;;;;;;;;;5012527;28;20189;-72
2023/06/04 05:58:01;;;;;;;6.78;2.35;;;;;;;;;;5037231;28;20198;-72
2023/06/04 06:00:27;;;;;;;6.53;2.70;;;;;;;;;;5036150;28;20213;-73
2023/06/04 06:02:53;;;;;;;4.38;2.45;;;;;;;;;;5024976;28;20191;-72
2023/06/04 06:05:19;;;;;;;7.68;2.70;;;;;;;;;;5031890;28;20649;-72
2023/06/04 06:07:45;;;;;;;7.85;2.10;;;;;;;;;;5029375;28;20195;-72
2023/06/04 06:10:11;;;;;;;6.90;2.13;;;;;;;;;;5037942;28;20272;-72
2023/06/04 06:12:36;;;;;;;6.85;2.20;;;;;;;;;;5027822;28;20265;-72
2023/06/04 06:15:02;;;;;;;6.38;2.42;;;;;;;;;;5026345;28;20710;-72
2023/06/04 06:17:28;;;;;;;4.43;2.10;;;;;;;;;;5033947;28;20688;-71
2023/06/04 06:19:54;;;;;;;3.72;2.05;;;;;;;;;;5026062;28;20701;-71
2023/06/04 06:22:19;;;;;;;6.97;2.45;;;;;;;;;;5028029;28;20252;-72
2023/06/04 06:24:45;;;;;;;5.03;2.40;;;;;;;;;;5037055;28;20227;-72
2023/06/04 06:27:10;;;;;;;6.93;2.65;;;;;;;;;;5034102;28;20197;-72
2023/06/04 06:29:36;;;;;;;6.38;2.30;;;;;;;;;;5025269;28;20646;-72
2023/06/04 06:32:02;;;;;;;5.32;2.42;;;;;;;;;;5040971;28;20193;-72
2023/06/04 06:34:28;;;;;;;5.22;2.45;;;;;;;;;;5028206;28;20198;-72
2023/06/04 06:36:53;;;;;;;5.13;2.50;;;;;;;;;;5023505;28;20190;-70
2023/06/04 06:39:18;;;;;;;7.03;2.60;;;;;;;;;;5027136;28;20269;-72
2023/06/04 06:41:45;;;;;;;5.28;2.10;;;;;;;;;;5026944;28;20300;-72
2023/06/04 06:44:10;;;;;;;4.70;2.40;;;;;;;;;;5019266;28;20469;-71
2023/06/04 06:46:36;;;;;;;4.88;2.33;;;;;;;;;;5012605;28;20218;-71
2023/06/04 06:49:01;;;;;;;6.10;2.38;;;;;;;;;;5027758;28;20178;-70
2023/06/04 06:51:26;;;;;;;6.80;2.28;;;;;;;;;;5031293;28;20186;-71
2023/06/04 06:53:52;;;;;;;5.97;2.28;;;;;;;;;;5037270;28;20185;-71
2023/06/04 06:56:18;;;;;;;5.60;2.35;;;;;;;;;;5025583;28;20202;-72
2023/06/04 06:58:44;;;;;;;6.18;2.20;;;;;;;;;;5025295;28;20292;-71
2023/06/04 07:01:10;;;;;;;4.75;2.30;;;;;;;;;;5027082;28;20306;-72
2023/06/04 07:03:35;;;;;;;5.82;2.40;;;;;;;;;;5041774;28;20379;-71
2023/06/04 07:06:01;;;;;;;6.22;2.38;;;;;;;;;;5035033;28;20265;-72
2023/06/04 07:08:26;;;;;;;8.23;2.25;;;;;;;;;;5021572;28;20260;-72
2023/06/04 07:10:52;;;;;;;5.55;2.13;;;;;;;;;;5035709;28;20201;-72
2023/06/04 07:13:17;;;;;;;5.57;2.08;;;;;;;;;;5025091;28;20594;-72
2023/06/04 07:15:42;;;;;;;5.38;1.95;;;;;;;;;;5023069;28;20194;-70
2023/06/04 07:18:08;;;;;;;4.30;2.10;;;;;;;;;;5027048;28;20294;-71
2023/06/04 07:20:33;;;;;;;4.57;2.25;;;;;;;;;;5027593;28;20217;-71
2023/06/04 07:22:59;;;;;;;4.78;2.00;;;;;;;;;;5027336;28;20186;-71
2023/06/04 07:25:25;;;;;;;5.55;1.85;;;;;;;;;;5043171;28;20191;-70
2023/06/04 07:27:51;;;;;;;5.30;1.80;;;;;;;;;;5029020;28;20187;-72
2023/06/04 07:30:16;;;;;;;3.78;1.90;;;;;;;;;;5021511;28;20193;-71
2023/06/04 07:32:46;;;;;;;7.70;2.00;;;;;;;;;;5026238;28;20659;-72
2023/06/04 07:35:12;;;;;;;3.80;1.80;;;;;;;;;;5027158;28;20585;-73
2023/06/04 07:37:37;;;;;;;5.68;1.80;;;;;;;;;;5026809;28;20220;-72
2023/06/04 07:40:03;;;;;;;4.88;1.80;;;;;;;;;;5027622;28;20246;-71
2023/06/04 07:42:29;;;;;;;4.55;1.67;;;;;;;;;;5016427;28;20285;-72
2023/06/04 07:44:54;;;;;;;4.57;1.70;;;;;;;;;;5029506;28;20293;-71
2023/06/04 07:47:20;;;;;;;5.90;1.88;;;;;;;;;;5021312;28;20195;-71
2023/06/04 07:49:45;;;;;;;3.45;1.77;;;;;;;;;;5042149;28;20669;-71
2023/06/04 07:52:11;;;;;;;2.55;1.33;;;;;;;;;;5024553;28;20193;-72
2023/06/04 07:54:37;;;;;;;6.10;1.67;;;;;;;;;;5022301;28;20686;-72
2023/06/04 07:57:02;;;;;;;4.50;1.60;;;;;;;;;;5024681;28;20256;-72
2023/06/04 07:59:29;;;;;;;6.93;1.83;;;;;;;;;;5021284;28;20322;-72
2023/06/04 08:01:54;;;;;;;3.20;1.50;;;;;;;;;;5023517;28;20570;-72
2023/06/04 08:04:20;;;;;;;4.10;1.77;;;;;;;;;;5018945;28;20190;-71
2023/06/04 08:06:46;;;;;;;4.15;1.52;;;;;;;;;;5018881;28;20198;-72
2023/06/04 08:09:12;;;;;;;3.88;1.48;;;;;;;;;;5028479;28;20181;-72
2023/06/04 08:11:40;;;;;;;5.35;1.60;;;;;;;;;;5031389;28;20646;-73
2023/06/04 08:14:06;;;;;;;3.60;1.48;;;;;;;;;;5020872;28;20274;-70
2023/06/04 08:16:32;;;;;;;3.58;1.65;;;;;;;;;;5019330;28;20649;-71
2023/06/04 08:18:57;;;;;;;3.17;1.50;;;;;;;;;;5024211;28;20215;-71
2023/06/04 08:21:26;;;;;;;3.17;1.58;;;;;;;;;;5021815;28;20272;-71
2023/06/04 08:23:52;;;;;;;29.90;4.43;;;;;;;;;;5024603;28;20216;-71
2023/06/04 08:26:19;;;;;;;4.38;1.23;;;;;;;;;;5032475;28;20635;-71
2023/06/04 08:28:47;;;;;;;5.05;1.15;;;;;;;;;;5035900;28;20704;-71
2023/06/04 08:31:12;;;;;;;2.72;1.30;;;;;;;;;;5017216;28;20221;-72
2023/06/04 08:33:37;;;;;;;4.20;1.40;;;;;;;;;;5022925;28;20226;-72
2023/06/04 08:36:03;;;;;;;4.68;1.10;;;;;;;;;;4327821;28;10000722;-71
2023/06/04 08:38:28;;;;;;;6.05;1.65;;;;;;;;;;5030535;28;20728;-72
2023/06/04 08:41:01;;;;;;;2.17;1.20;;;;;;;;;;5022991;28;20608;-72
2023/06/04 08:43:26;;;;;;;4.22;1.02;;;;;;;;;;5023719;28;20224;-72
2023/06/04 08:45:59;;;;;;;4.10;1.52;;;;;;;;;;5021832;28;20729;-73
2023/06/04 08:48:25;;;;;;;4.82;1.20;;;;;;;;;;5020375;28;20209;-72
2023/06/04 08:50:52;;;;;;;4.10;1.20;;;;;;;;;;5009128;28;20199;-72
2023/06/04 08:53:18;;;;;;;3.47;1.20;;;;;;;;;;5031203;28;20273;-71
2023/06/04 08:55:43;;;;;;;4.10;1.13;;;;;;;;;;5024897;28;20269;-71
2023/06/04 08:58:10;;;;;;;2.92;1.20;;;;;;;;;;5024565;28;20287;-70
2023/06/04 09:00:35;;;;;;;1.70;1.10;;;;;;;;;;5040576;28;20231;-69
2023/06/04 09:03:03;;;;;;;4.80;1.40;;;;;;;;;;5025041;28;20725;-71
2023/06/04 09:05:29;;;;;;;2.78;1.13;;;;;;;;;;5020920;28;20677;-71
2023/06/04 09:07:58;;;;;;;5.18;1.25;;;;;;;;;;5023625;28;20693;-70
2023/06/04 09:10:26;;;;;;;1.52;0.90;;;;;;;;;;5023189;28;20273;-71
2023/06/04 09:12:52;;;;;;;2.78;1.30;;;;;;;;;;5019371;28;20206;-71
2023/06/04 09:15:17;;;;;;;5.13;1.25;;;;;;;;;;5022040;28;20205;-71
2023/06/04 09:17:43;;;;;;;2.00;1.20;;;;;;;;;;5027628;28;20229;-70
2023/06/04 09:20:21;;;;;;;3.90;1.20;;;;;;;;;;5008764;28;20209;-70
2023/06/04 09:22:47;;;;;;;4.25;0.93;;;;;;;;;;5031890;28;20205;-71
2023/06/04 09:25:26;;;;;;;2.67;1.10;;;;;;;;;;5030619;28;20185;-72
2023/06/04 09:27:56;;;;;;;2.60;1.13;;;;;;;;;;5032465;28;20190;-71
2023/06/04 09:30:23;;;;;;;3.50;1.27;;;;;;;;;;5022109;28;20186;-72
2023/06/04 09:32:48;;;;;;;5.65;1.30;;;;;;;;;;5028923;28;20270;-72
2023/06/04 09:35:16;;;;;;;2.25;0.80;;;;;;;;;;5022730;28;20194;-73
2023/06/04 09:37:43;;;;;;;2.13;0.90;;;;;;;;;;5020000;28;20224;-73
2023/06/04 09:40:09;;;;;;;2.47;1.30;;;;;;;;;;5024360;28;20237;-72
2023/06/04 09:42:45;;;;;;;1.60;1.00;;;;;;;;;;5026945;28;20579;-70
2023/06/04 09:45:12;;;;;;;2.72;1.10;;;;;;;;;;5032278;28;20580;-72
2023/06/04 09:47:42;;;;;;;2.33;1.10;;;;;;;;;;5030646;28;20190;-72
2023/06/04 09:50:08;;;;;;;1.40;1.00;;;;;;;;;;5027411;28;20186;-72
2023/06/04 09:52:34;;;;;;;2.80;1.10;;;;;;;;;;5027780;28;20190;-72
2023/06/04 09:54:59;;;;;;;1.75;0.88;;;;;;;;;;5024245;28;20213;-71
2023/06/04 09:57:27;;;;;;;4.70;0.73;;;;;;;;;;5025983;28;20217;-72
2023/06/04 09:59:53;;;;;;;2.33;0.98;;;;;;;;;;5021827;28;20480;-73
2023/06/04 10:02:20;;;;;;;1.75;1.13;;;;;;;;;;5024148;28;20229;-75
2023/06/04 10:04:53;;;;;;;2.90;0.90;;;;;;;;;;5019984;28;20265;-73
2023/06/04 10:07:19;;;;;;;2.05;0.75;;;;;;;;;;5009283;28;20189;-71
2023/06/04 10:09:48;;;;;;;1.00;0.90;;;;;;;;;;5009805;28;20201;-71
2023/06/04 10:12:17;;;;;;;3.88;0.90;;;;;;;;;;5017038;28;20646;-72
2023/06/04 10:14:54;;;;;;;1.73;1.30;;;;;;;;;;5028797;28;20560;-70
2023/06/04 10:17:23;;;;;;;1.98;1.00;;;;;;;;;;5024879;28;20189;-72
2023/06/04 10:19:51;;;;;;;4.60;1.30;;;;;;;;;;5024926;28;20259;-72
2023/06/04 10:22:17;;;;;;;1.42;0.90;;;;;;;;;;5039805;28;20269;-70
2023/06/04 10:24:52;;;;;;;2.67;0.92;;;;;;;;;;4648350;28;10002893;-72
2023/06/04 10:27:17;;;;;;;2.08;0.90;;;;;;;;;;5024960;28;20272;-71
2023/06/04 10:29:45;;;;;;;1.42;0.90;;;;;;;;;;5028972;28;20194;-72
2023/06/04 10:32:11;;;;;;;1.48;0.77;;;;;;;;;;5028676;28;20264;-71
2023/06/04 10:34:37;;;;;;;3.30;0.93;;;;;;;;;;5017747;28;20182;-71
2023/06/04 10:37:03;;;;;;;2.75;1.15;;;;;;;;;;5019490;28;20583;-71
2023/06/04 10:39:29;;;;;;;1.48;1.23;;;;;;;;;;5016753;28;20237;-71
2023/06/04 10:41:59;;;;;;;2.00;1.13;;;;;;;;;;5025591;28;20554;-72
2023/06/04 10:44:24;;;;;;;2.08;1.00;;;;;;;;;;5024147;28;20208;-72
2023/06/04 10:46:50;;;;;;;1.50;0.90;;;;;;;;;;5019283;28;20195;-71
2023/06/04 10:49:26;;;;;;;1.73;0.82;;;;;;;;;;5037529;28;20190;-71
2023/06/04 10:51:51;;;;;;;2.80;0.93;;;;;;;;;;5023615;28;20267;-72
2023/06/04 10:54:25;;;;;;;2.72;1.02;;;;;;;;;;5020455;28;20278;-74
2023/06/04 10:56:51;;;;;;;2.55;1.00;;;;;;;;;;5007821;28;20198;-73
2023/06/04 10:59:18;;;;;;;1.33;0.88;;;;;;;;;;5038615;28;20217;-72
2023/06/04 11:01:44;;;;;;;4.13;1.33;;;;;;;;;;5023774;28;20309;-71
2023/06/04 11:04:25;;;;;;;2.20;0.80;;;;;;;;;;5017669;28;20612;-73
2023/06/04 11:07:09;;;;;;;2.42;1.35;;;;;;;;;;5021845;28;20722;-73
2023/06/04 11:09:35;;;;;;;1.20;1.00;;;;;;;;;;5023280;28;20597;-72
2023/06/04 11:12:04;;;;;;;2.72;1.08;;;;;;;;;;5030175;28;20205;-72
2023/06/04 11:14:29;;;;;;;3.80;1.55;;;;;;;;;;5019991;28;20792;-72
2023/06/04 11:16:55;;;;;;;1.92;0.98;;;;;;;;;;5013448;28;20182;-71
2023/06/04 11:19:20;;;;;;;3.35;1.20;;;;;;;;;;5020004;28;20531;-73
2023/06/04 11:21:47;;;;;;;4.50;1.10;;;;;;;;;;5017733;28;20638;-72
2023/06/04 11:24:12;;;;;;;5.13;1.17;;;;;;;;;;5017690;28;20191;-73
2023/06/04 11:26:38;;;;;;;2.53;1.27;;;;;;;;;;5022967;28;20184;-71
2023/06/04 11:29:11;;;;;;;2.45;1.10;;;;;;;;;;5023265;28;20319;-71
2023/06/04 11:31:47;;;;;;;1.63;1.10;;;;;;;;;;5014585;28;20599;-72
2023/06/04 11:34:32;;;;;;;2.47;1.30;;;;;;;;;;5013110;28;20194;-73
2023/06/04 11:37:08;;;;;;;2.33;1.20;;;;;;;;;;5035271;28;20316;-76
2023/06/04 11:39:39;;;;;;;2.33;1.38;;;;;;;;;;5022127;28;20226;-73
2023/06/04 11:42:06;;;;;;;1.95;1.00;;;;;;;;;;5027997;28;20198;-71
2023/06/04 11:44:31;;;;;;;3.13;1.30;;;;;;;;;;5018262;28;20252;-72
2023/06/04 11:46:57;;;;;;;3.28;1.35;;;;;;;;;;5023315;28;20202;-74
2023/06/04 11:49:22;;;;;;;1.35;1.00;;;;;;;;;;5023426;28;20665;-71
2023/06/04 11:51:48;;;;;;;3.67;1.30;;;;;;;;;;5011435;28;20197;-72
2023/06/04 11:54:15;;;;;;;3.22;1.13;;;;;;;;;;5019915;28;20190;-72
2023/06/04 11:56:44;;;;;;;2.30;1.20;;;;;;;;;;5026582;28;20232;-71
2023/06/04 11:59:13;;;;;;;2.75;1.23;;;;;;;;;;5019374;28;20222;-70
2023/06/04 12:01:39;;;;;;;1.58;1.13;;;;;;;;;;5027229;28;20598;-71
2023/06/04 12:04:12;;;;;;;1.77;1.20;;;;;;;;;;5018795;28;20276;-70
2023/06/04 12:06:38;;;;;;;2.58;1.10;;;;;;;;;;5018171;28;20686;-70
2023/06/04 12:09:04;;;;;;;1.92;1.25;;;;;;;;;;5020978;28;20183;-69
2023/06/04 12:11:34;;;;;;;2.17;1.10;;;;;;;;;;5010779;28;20273;-70
2023/06/04 12:14:06;;;;;;;2.03;0.98;;;;;;;;;;5015095;28;20190;-69
2023/06/04 12:16:34;;;;;;;3.95;1.08;;;;;;;;;;5022319;28;20209;-71
2023/06/04 12:19:12;;;;;;;2.08;1.00;;;;;;;;;;5023976;28;20213;-70
2023/06/04 12:21:41;;;;;;;6.95;1.38;;;;;;;;;;5026114;28;20211;-69
2023/06/04 12:24:08;;;;;;;2.85;1.10;;;;;;;;;;5036029;28;20189;-72
2023/06/04 12:26:37;;;;;;;2.00;1.52;;;;;;;;;;5025920;28;20186;-68
2023/06/04 12:29:11;;;;;;;2.85;1.20;;;;;;;;;;5034873;28;20187;-69
2023/06/04 12:31:38;;;;;;;1.33;1.10;;;;;;;;;;5015319;28;20286;-70
2023/06/04 12:34:03;;;;;;;2.60;1.27;;;;;;;;;;5022967;28;20338;-71
2023/06/04 12:36:29;;;;;;;2.38;1.20;;;;;;;;;;5026497;28;20284;-70
2023/06/04 12:39:00;;;;;;;4.25;1.13;;;;;;;;;;5032960;28;20241;-71
2023/06/04 12:41:26;;;;;;;1.92;1.20;;;;;;;;;;5046702;28;20245;-72
2023/06/04 12:43:51;;;;;;;1.98;1.40;;;;;;;;;;5026370;28;20221;-73
2023/06/04 12:46:17;;;;;;;2.80;1.17;;;;;;;;;;5046887;28;20186;-69
2023/06/04 12:48:42;;;;;;;2.63;1.30;;;;;;;;;;5019096;28;20189;-73
2023/06/04 12:51:10;;;;;;;2.63;1.25;;;;;;;;;;5011422;28;20269;-67
2023/06/04 12:53:43;;;;;;;3.88;1.45;;;;;;;;;;5041830;28;20217;-69
2023/06/04 12:56:09;;;;;;;3.97;1.48;;;;;;;;;;5026913;28;20197;-69
2023/06/04 12:58:35;;;;;;;1.88;1.20;;;;;;;;;;5029562;28;20210;-70
2023/06/04 13:01:01;;;;;;;2.20;1.40;;;;;;;;;;5024653;28;20355;-69
2023/06/04 13:03:26;;;;;;;2.60;1.20;;;;;;;;;;5030479;28;20216;-69
2023/06/04 13:05:53;;;;;;;3.30;1.20;;;;;;;;;;5017185;28;20266;-71
2023/06/04 13:08:22;;;;;;;5.40;1.30;;;;;;;;;;5021313;28;20193;-71
2023/06/04 13:10:50;;;;;;;2.22;1.10;;;;;;;;;;5031604;28;20190;-70
2023/06/04 13:13:16;;;;;;;2.15;1.20;;;;;;;;;;5018460;28;20621;-71
2023/06/04 13:15:45;;;;;;;2.28;1.17;;;;;;;;;;5025431;28;20576;-75
2023/06/04 13:18:11;;;;;;;3.70;1.30;;;;;;;;;;5016863;28;20206;-71
2023/06/04 13:20:37;;;;;;;2.20;1.15;;;;;;;;;;5027361;28;20199;-72
2023/06/04 13:23:02;;;;;;;1.42;0.90;;;;;;;;;;5020449;28;20222;-71
2023/06/04 13:25:28;;;;;;;1.80;1.02;;;;;;;;;;5021456;28;20209;-72
2023/06/04 13:27:54;;;;;;;3.47;1.42;;;;;;;;;;5049877;28;20265;-71
2023/06/04 13:30:24;;;;;;;2.58;1.45;;;;;;;;;;5032732;28;20243;-71
2023/06/04 13:32:49;;;;;;;3.42;1.33;;;;;;;;;;5027535;28;20203;-71
2023/06/04 13:35:15;;;;;;;1.85;1.38;;;;;;;;;;5022322;28;20876;-71
2023/06/04 13:37:40;;;;;;;2.13;1.30;;;;;;;;;;5037990;28;20866;-71
2023/06/04 13:40:07;;;;;;;2.22;1.30;;;;;;;;;;5029597;28;20692;-72
2023/06/04 13:42:33;;;;;;;4.90;1.30;;;;;;;;;;5036759;28;20780;-72
2023/06/04 13:44:58;;;;;;;2.92;1.38;;;;;;;;;;5028563;28;20300;-72
2023/06/04 13:47:24;;;;;;;2.58;1.40;;;;;;;;;;5020809;28;20197;-72
2023/06/04 13:49:50;;;;;;;2.13;1.20;;;;;;;;;;5024789;28;20197;-72
2023/06/04 13:52:15;;;;;;;2.00;1.30;;;;;;;;;;5034076;28;20190;-73
2023/06/04 13:54:40;;;;;;;4.20;1.33;;;;;;;;;;5034758;28;20553;-71
2023/06/04 13:57:07;;;;;;;2.78;1.30;;;;;;;;;;5037704;28;20193;-77
2023/06/04 13:59:33;;;;;;;4.70;1.45;;;;;;;;;;5022594;28;20261;-70
2023/06/04 14:01:59;;;;;;;3.97;1.20;;;;;;;;;;5031456;28;20220;-69
2023/06/04 14:04:24;;;;;;;3.78;1.50;;;;;;;;;;5029537;28;20197;-69
2023/06/04 14:06:50;;;;;;;3.35;1.30;;;;;;;;;;5032169;28;20202;-69
2023/06/04 14:09:19;;;;;;;1.55;1.20;;;;;;;;;;5019960;28;20182;-71
2023/06/04 14:11:49;;;;;;;2.45;1.40;;;;;;;;;;5043893;28;20602;-70
2023/06/04 14:14:14;;;;;;;3.97;1.23;;;;;;;;;;5038385;28;20186;-69
2023/06/04 14:16:40;;;;;;;2.22;1.50;;;;;;;;;;5045056;28;20259;-71
2023/06/04 14:19:05;;;;;;;3.05;1.35;;;;;;;;;;5025614;28;20592;-71
2023/06/04 14:21:31;;;;;;;4.55;1.52;;;;;;;;;;5024733;28;20608;-71
2023/06/04 14:23:56;;;;;;;5.25;1.98;;;;;;;;;;5032302;28;20230;-72
2023/06/04 14:26:22;;;;;;;2.30;1.25;;;;;;;;;;5020317;28;20241;-71
2023/06/04 14:28:47;;;;;;;2.25;1.48;;;;;;;;;;5013109;28;20245;-72
2023/06/04 14:31:12;;;;;;;1.38;1.27;;;;;;;;;;5022113;28;20194;-71
2023/06/04 14:33:38;;;;;;;2.65;1.45;;;;;;;;;;5027015;28;20194;-71
2023/06/04 14:36:04;;;;;;;2.40;1.38;;;;;;;;;;5034545;28;20201;-71
2023/06/04 14:38:29;;;;;;;4.32;1.52;;;;;;;;;;5028056;28;20226;-72
2023/06/04 14:40:56;;;;;;;2.45;1.27;;;;;;;;;;5014679;28;20262;-70